Friant, CA (93626)

4:36 AM PDT on August 01, 2015 (GMT -0700)
Millerton Lake | | Change Station
CLOSE
Current Station
Personal Weather Station
Location: Friant, CA
Elevation: 669 ft
Nearby Weather Stations

Elev 669 ft 36.99 °N, 119.69 °W | Updated 1 minute ago

Partly Cloudy
Partly Cloudy
74.4 °F
Feels Like 77 °F
N
0.0
Wind Variable Wind from SSE
Gusts 12.0 mph

Today
High -- | Low -- °F
--% Chance of Precip.
Yesterday
High -- | Low -- °F
Precip. -- in
6:03 AM 8:05 PM
Full, 98% visible
Pressure 29.91 in
Visibility 10.0 miles
Clouds Scattered Clouds 13000 ft
Mostly Cloudy 20000 ft
Heat Index 77 °F
Dew Point 56 °F
Humidity 53%
Rainfall 0.00 in
Snow Depth Not available.
UV 0 out of 12
Pollen 5.50 out of 12
Air Quality Not available.
Flu Activity Not available.
METAR KFAT 011053Z 32003KT 10SM SCT130 BKN200 24/11 A2992 RMK AO2 SLP127 T02390106

More Conditions Fewer Conditions

Pressure 29.91 in
Visibility 10.0 miles
Clouds Scattered Clouds 13000 ft
Mostly Cloudy 20000 ft
Heat Index 77 °F
Dew Point 56 °F
Humidity 53%
Rainfall 0.00 in
Snow Depth Not available.
UV 0 out of 12
Pollen 5.50 out of 12
Air Quality Not available.
Flu Activity Not available.
METAR KFAT 011053Z 32003KT 10SM SCT130 BKN200 24/11 A2992 RMK AO2 SLP127 T02390106

More Conditions Fewer Conditions

10-Day Weather Forecast

×

Almanac

Astronomy

Aug. 01, 2015 Rise Set
Actual Time
Civil Twilight
Nautical Twilight
Astronomical Twilight
Moon
Length of Visible Light
Length of Day
Tomorrow will be .
, % of the Moon is Illuminated

Today's Extremes

State Highs State Lows

Community

WunderPhotos

Upload Photos

1,842,918 photos uploaded!

WunderBlogs® & News

Nearby

Air Quality

  Air Quality AQ Index Pollutant
Not available.

Snow Depth

Station Depth Elevation

Earthquake Activity

City Distance Mag. Time & Date
Minimum magnitude displayed is 2.5.

Coastal Water Temperatures

Place Temperature

Stations

Nearby Weather Stations

Station Location Temp. Windchill Dew Point Humidity Wind Precip. Elev Updated Type